CYOW/YOW METAR and TAF weather

Enter ICAO airport designator
Station Type Date Time Source
CYOW METAR 2020/12/05 05:30 UTC NOAA

CYOW 050530Z VRB02KT 2 1/2SM BR BKN005 OVC017 01/00 A2988 RMK FG1SF4SC3 SLP124


Station Type Date Time Source
CYOW Decoded METAR 2020/12/05 05:30 UTC NOAA

Ottawa Int'L. Ont., Canada (CYOW) 45-19N 075-40W 114M
Dec 05, 2020 - 12:30 AM EST / 2020.12.05 0530 UTC
Wind: Variable at 2 MPH (2 KT):0
Visibility: 2 1/2 mile(s):0
Sky conditions: overcast
Weather: mist
Temperature: 33 F (1 C)
Dew Point: 32 F (0 C)
Relative Humidity: 93%
Pressure (altimeter): 29.88 in. Hg (1011 hPa)
ob: CYOW 050530Z VRB02KT 2 1/2SM BR BKN005 OVC017 01/00 A2988 RMK FG1SF4SC3 SLP124
cycle: 5

Station Type Date Time Source
CYOW TAF 2020/12/05 06:42 UTC NOAA

TAF TAF CYOW 050538Z 0506/0606 VRB03KT 6SM BR SCT003 OVC015
TEMPO 0506/0508 2SM -DZ BR BKN003 OVC015 PROB30 0506/0508 1/2SM FZFG VV002
FM050800 VRB03KT 2SM -FZDZ BR OVC003
TEMPO 0508/0514 6SM BR OVC006 PROB30 0508/0514 1/2SM FZFG VV002
FM051400 01008KT 6SM -DZ BR BKN008 OVC025
FM051700 35012KT P6SM BKN015 BKN030
FM052000 33012KT P6SM SCT020
RMK NXT FCST BY 050900Z

Example: see airport list